sensor_id;sensor_type;location;lat;lon;timestamp;P1;durP1;ratioP1;P2;durP2;ratioP2
23596;SDS011;40226;50.874;4.394;2023-04-28T00:00:17;55.55;;;31.83;;
23596;SDS011;40226;50.874;4.394;2023-04-28T00:02:43;54.45;;;31.15;;
23596;SDS011;40226;50.874;4.394;2023-04-28T00:05:10;56.85;;;33.10;;
23596;SDS011;40226;50.874;4.394;2023-04-28T00:07:36;57.33;;;33.58;;
23596;SDS011;40226;50.874;4.394;2023-04-28T00:10:02;58.55;;;33.22;;
23596;SDS011;40226;50.874;4.394;2023-04-28T00:12:27;58.05;;;33.08;;
23596;SDS011;40226;50.874;4.394;2023-04-28T00:14:53;61.20;;;33.70;;
23596;SDS011;40226;50.874;4.394;2023-04-28T00:17:19;60.28;;;35.72;;
23596;SDS011;40226;50.874;4.394;2023-04-28T00:19:44;58.80;;;34.70;;
23596;SDS011;40226;50.874;4.394;2023-04-28T00:22:10;59.70;;;34.70;;
23596;SDS011;40226;50.874;4.394;2023-04-28T00:24:36;60.40;;;34.30;;
23596;SDS011;40226;50.874;4.394;2023-04-28T00:27:01;58.28;;;34.65;;
23596;SDS011;40226;50.874;4.394;2023-04-28T00:29:27;64.80;;;35.40;;
23596;SDS011;40226;50.874;4.394;2023-04-28T00:31:53;61.90;;;35.47;;
23596;SDS011;40226;50.874;4.394;2023-04-28T00:34:20;56.28;;;34.25;;
23596;SDS011;40226;50.874;4.394;2023-04-28T00:36:45;56.67;;;34.83;;
23596;SDS011;40226;50.874;4.394;2023-04-28T00:39:11;63.22;;;34.30;;
23596;SDS011;40226;50.874;4.394;2023-04-28T00:41:36;59.85;;;35.15;;
23596;SDS011;40226;50.874;4.394;2023-04-28T00:44:02;62.67;;;34.80;;
23596;SDS011;40226;50.874;4.394;2023-04-28T00:46:32;70.30;;;36.70;;
23596;SDS011;40226;50.874;4.394;2023-04-28T00:48:57;65.25;;;37.00;;
23596;SDS011;40226;50.874;4.394;2023-04-28T00:51:23;61.00;;;36.30;;
23596;SDS011;40226;50.874;4.394;2023-04-28T00:53:49;62.38;;;35.28;;
23596;SDS011;40226;50.874;4.394;2023-04-28T00:56:15;65.38;;;36.53;;
23596;SDS011;40226;50.874;4.394;2023-04-28T00:58:41;64.53;;;35.35;;
23596;SDS011;40226;50.874;4.394;2023-04-28T01:01:07;63.33;;;36.45;;
23596;SDS011;40226;50.874;4.394;2023-04-28T01:03:34;63.05;;;35.70;;
23596;SDS011;40226;50.874;4.394;2023-04-28T01:06:04;61.97;;;35.63;;
23596;SDS011;40226;50.874;4.394;2023-04-28T01:08:31;65.00;;;37.45;;
23596;SDS011;40226;50.874;4.394;2023-04-28T01:10:58;64.03;;;35.67;;
23596;SDS011;40226;50.874;4.394;2023-04-28T01:13:24;64.93;;;35.78;;
23596;SDS011;40226;50.874;4.394;2023-04-28T01:15:50;61.72;;;35.67;;
23596;SDS011;40226;50.874;4.394;2023-04-28T01:18:16;62.10;;;35.70;;
23596;SDS011;40226;50.874;4.394;2023-04-28T01:20:42;59.55;;;35.60;;
23596;SDS011;40226;50.874;4.394;2023-04-28T01:23:11;56.88;;;34.92;;
23596;SDS011;40226;50.874;4.394;2023-04-28T01:25:41;61.23;;;35.27;;
23596;SDS011;40226;50.874;4.394;2023-04-28T01:28:08;55.85;;;34.22;;
23596;SDS011;40226;50.874;4.394;2023-04-28T01:30:35;63.90;;;35.97;;
23596;SDS011;40226;50.874;4.394;2023-04-28T01:33:01;59.92;;;35.22;;
23596;SDS011;40226;50.874;4.394;2023-04-28T01:35:27;62.30;;;35.85;;
23596;SDS011;40226;50.874;4.394;2023-04-28T01:37:53;69.57;;;37.33;;
23596;SDS011;40226;50.874;4.394;2023-04-28T01:40:19;64.47;;;35.92;;
23596;SDS011;40226;50.874;4.394;2023-04-28T01:42:44;63.97;;;37.42;;
23596;SDS011;40226;50.874;4.394;2023-04-28T01:45:10;61.53;;;36.95;;
23596;SDS011;40226;50.874;4.394;2023-04-28T01:47:37;64.00;;;38.17;;
23596;SDS011;40226;50.874;4.394;2023-04-28T01:50:03;61.72;;;36.33;;
23596;SDS011;40226;50.874;4.394;2023-04-28T01:52:29;64.30;;;37.40;;
23596;SDS011;40226;50.874;4.394;2023-04-28T01:54:55;65.57;;;37.28;;
23596;SDS011;40226;50.874;4.394;2023-04-28T01:57:23;61.97;;;36.50;;
23596;SDS011;40226;50.874;4.394;2023-04-28T01:59:48;62.67;;;35.90;;
23596;SDS011;40226;50.874;4.394;2023-04-28T02:02:14;62.22;;;36.45;;
23596;SDS011;40226;50.874;4.394;2023-04-28T02:04:39;64.65;;;37.83;;
23596;SDS011;40226;50.874;4.394;2023-04-28T02:07:05;67.22;;;37.83;;
23596;SDS011;40226;50.874;4.394;2023-04-28T02:09:32;72.07;;;39.80;;
23596;SDS011;40226;50.874;4.394;2023-04-28T02:11:58;73.85;;;41.58;;
23596;SDS011;40226;50.874;4.394;2023-04-28T02:14:26;76.65;;;41.80;;
23596;SDS011;40226;50.874;4.394;2023-04-28T02:16:52;74.50;;;43.25;;
23596;SDS011;40226;50.874;4.394;2023-04-28T02:19:17;74.90;;;42.05;;
23596;SDS011;40226;50.874;4.394;2023-04-28T02:21:43;80.40;;;43.63;;
23596;SDS011;40226;50.874;4.394;2023-04-28T02:24:09;82.75;;;45.85;;
23596;SDS011;40226;50.874;4.394;2023-04-28T02:26:34;82.00;;;44.13;;
23596;SDS011;40226;50.874;4.394;2023-04-28T02:29:00;84.03;;;46.20;;
23596;SDS011;40226;50.874;4.394;2023-04-28T02:31:28;79.45;;;45.15;;
23596;SDS011;40226;50.874;4.394;2023-04-28T02:33:54;80.97;;;44.92;;
23596;SDS011;40226;50.874;4.394;2023-04-28T02:36:20;78.97;;;45.55;;
23596;SDS011;40226;50.874;4.394;2023-04-28T02:38:45;83.32;;;44.95;;
23596;SDS011;40226;50.874;4.394;2023-04-28T02:41:11;81.70;;;44.95;;
23596;SDS011;40226;50.874;4.394;2023-04-28T02:43:38;81.20;;;45.70;;
23596;SDS011;40226;50.874;4.394;2023-04-28T02:46:04;75.95;;;40.78;;
23596;SDS011;40226;50.874;4.394;2023-04-28T02:48:30;73.47;;;42.67;;
23596;SDS011;40226;50.874;4.394;2023-04-28T02:50:59;82.55;;;43.50;;
23596;SDS011;40226;50.874;4.394;2023-04-28T02:53:25;86.20;;;43.20;;
23596;SDS011;40226;50.874;4.394;2023-04-28T02:55:50;77.90;;;43.20;;
23596;SDS011;40226;50.874;4.394;2023-04-28T02:58:16;78.25;;;43.05;;
23596;SDS011;40226;50.874;4.394;2023-04-28T03:00:42;79.63;;;45.40;;
23596;SDS011;40226;50.874;4.394;2023-04-28T03:03:08;76.55;;;44.47;;
23596;SDS011;40226;50.874;4.394;2023-04-28T03:05:33;80.78;;;45.63;;
23596;SDS011;40226;50.874;4.394;2023-04-28T03:07:59;76.05;;;44.88;;
23596;SDS011;40226;50.874;4.394;2023-04-28T03:10:25;81.15;;;43.72;;
23596;SDS011;40226;50.874;4.394;2023-04-28T03:12:50;75.78;;;43.45;;
23596;SDS011;40226;50.874;4.394;2023-04-28T03:15:16;80.90;;;45.35;;
23596;SDS011;40226;50.874;4.394;2023-04-28T03:17:42;85.07;;;46.10;;
23596;SDS011;40226;50.874;4.394;2023-04-28T03:20:08;75.05;;;44.30;;
23596;SDS011;40226;50.874;4.394;2023-04-28T03:22:34;81.30;;;43.80;;
23596;SDS011;40226;50.874;4.394;2023-04-28T03:25:00;85.38;;;46.05;;
23596;SDS011;40226;50.874;4.394;2023-04-28T03:27:26;79.72;;;45.33;;
23596;SDS011;40226;50.874;4.394;2023-04-28T03:29:52;76.32;;;45.15;;
23596;SDS011;40226;50.874;4.394;2023-04-28T03:32:17;78.35;;;45.28;;
23596;SDS011;40226;50.874;4.394;2023-04-28T03:34:43;84.65;;;47.05;;
23596;SDS011;40226;50.874;4.394;2023-04-28T03:37:09;82.13;;;47.13;;
23596;SDS011;40226;50.874;4.394;2023-04-28T03:39:34;87.93;;;47.95;;
23596;SDS011;40226;50.874;4.394;2023-04-28T03:42:00;86.93;;;48.58;;
23596;SDS011;40226;50.874;4.394;2023-04-28T03:44:26;91.60;;;50.63;;
23596;SDS011;40226;50.874;4.394;2023-04-28T03:46:51;87.50;;;48.40;;
23596;SDS011;40226;50.874;4.394;2023-04-28T03:49:17;87.97;;;50.60;;
23596;SDS011;40226;50.874;4.394;2023-04-28T03:51:43;90.38;;;49.60;;
23596;SDS011;40226;50.874;4.394;2023-04-28T03:54:09;95.03;;;50.13;;
23596;SDS011;40226;50.874;4.394;2023-04-28T03:56:34;97.70;;;53.25;;
23596;SDS011;40226;50.874;4.394;2023-04-28T03:59:00;100.80;;;53.28;;
23596;SDS011;40226;50.874;4.394;2023-04-28T04:01:26;83.07;;;48.03;;
23596;SDS011;40226;50.874;4.394;2023-04-28T04:03:51;86.30;;;47.13;;
23596;SDS011;40226;50.874;4.394;2023-04-28T04:06:17;88.72;;;46.67;;
23596;SDS011;40226;50.874;4.394;2023-04-28T04:08:43;78.95;;;47.00;;
23596;SDS011;40226;50.874;4.394;2023-04-28T04:11:09;91.32;;;49.50;;
23596;SDS011;40226;50.874;4.394;2023-04-28T04:13:34;94.22;;;51.38;;
23596;SDS011;40226;50.874;4.394;2023-04-28T04:16:00;102.50;;;52.67;;
23596;SDS011;40226;50.874;4.394;2023-04-28T04:18:26;96.53;;;51.85;;
23596;SDS011;40226;50.874;4.394;2023-04-28T04:20:52;94.53;;;53.30;;
23596;SDS011;40226;50.874;4.394;2023-04-28T04:23:19;98.15;;;51.47;;
23596;SDS011;40226;50.874;4.394;2023-04-28T04:25:45;94.00;;;52.40;;
23596;SDS011;40226;50.874;4.394;2023-04-28T04:28:11;96.82;;;54.20;;
23596;SDS011;40226;50.874;4.394;2023-04-28T04:30:37;97.13;;;52.25;;
23596;SDS011;40226;50.874;4.394;2023-04-28T04:33:03;95.88;;;53.00;;
23596;SDS011;40226;50.874;4.394;2023-04-28T04:35:28;91.28;;;51.55;;
23596;SDS011;40226;50.874;4.394;2023-04-28T04:37:55;97.95;;;54.10;;
23596;SDS011;40226;50.874;4.394;2023-04-28T04:40:22;96.78;;;50.85;;
23596;SDS011;40226;50.874;4.394;2023-04-28T04:42:47;97.28;;;52.42;;
23596;SDS011;40226;50.874;4.394;2023-04-28T04:45:13;85.40;;;49.78;;
23596;SDS011;40226;50.874;4.394;2023-04-28T04:47:39;92.63;;;51.42;;
23596;SDS011;40226;50.874;4.394;2023-04-28T04:50:05;92.55;;;51.90;;
23596;SDS011;40226;50.874;4.394;2023-04-28T04:52:31;93.88;;;51.67;;
23596;SDS011;40226;50.874;4.394;2023-04-28T04:54:57;87.82;;;50.55;;
23596;SDS011;40226;50.874;4.394;2023-04-28T04:57:23;96.30;;;54.97;;
23596;SDS011;40226;50.874;4.394;2023-04-28T04:59:54;93.05;;;51.50;;
23596;SDS011;40226;50.874;4.394;2023-04-28T05:02:19;91.63;;;51.13;;
23596;SDS011;40226;50.874;4.394;2023-04-28T05:04:45;96.18;;;52.63;;
23596;SDS011;40226;50.874;4.394;2023-04-28T05:07:20;110.35;;;56.33;;
23596;SDS011;40226;50.874;4.394;2023-04-28T05:09:47;100.97;;;56.92;;
23596;SDS011;40226;50.874;4.394;2023-04-28T05:18:17;112.53;;;57.00;;
23596;SDS011;40226;50.874;4.394;2023-04-28T05:20:42;110.90;;;58.85;;
23596;SDS011;40226;50.874;4.394;2023-04-28T05:23:09;106.63;;;57.17;;
23596;SDS011;40226;50.874;4.394;2023-04-28T05:25:36;113.85;;;59.97;;
23596;SDS011;40226;50.874;4.394;2023-04-28T05:28:02;114.90;;;59.90;;
23596;SDS011;40226;50.874;4.394;2023-04-28T05:30:31;113.78;;;59.63;;
23596;SDS011;40226;50.874;4.394;2023-04-28T05:32:58;105.50;;;56.85;;
23596;SDS011;40226;50.874;4.394;2023-04-28T05:35:24;107.95;;;57.17;;
23596;SDS011;40226;50.874;4.394;2023-04-28T05:37:50;109.03;;;58.00;;
23596;SDS011;40226;50.874;4.394;2023-04-28T05:40:16;99.85;;;54.08;;
23596;SDS011;40226;50.874;4.394;2023-04-28T05:42:42;97.45;;;51.38;;
23596;SDS011;40226;50.874;4.394;2023-04-28T05:45:08;99.07;;;50.90;;
23596;SDS011;40226;50.874;4.394;2023-04-28T05:47:34;96.60;;;48.38;;
23596;SDS011;40226;50.874;4.394;2023-04-28T05:50:00;97.97;;;48.35;;
23596;SDS011;40226;50.874;4.394;2023-04-28T05:52:25;92.57;;;46.83;;
23596;SDS011;40226;50.874;4.394;2023-04-28T05:54:52;90.55;;;45.45;;
23596;SDS011;40226;50.874;4.394;2023-04-28T05:57:18;95.28;;;44.25;;
23596;SDS011;40226;50.874;4.394;2023-04-28T05:59:44;90.45;;;43.60;;
23596;SDS011;40226;50.874;4.394;2023-04-28T06:04:39;60.65;;;32.65;;
23596;SDS011;40226;50.874;4.394;2023-04-28T06:07:05;59.38;;;32.13;;
23596;SDS011;40226;50.874;4.394;2023-04-28T06:09:32;54.42;;;29.17;;
23596;SDS011;40226;50.874;4.394;2023-04-28T06:11:58;47.92;;;27.60;;
23596;SDS011;40226;50.874;4.394;2023-04-28T06:14:23;47.70;;;29.50;;
23596;SDS011;40226;50.874;4.394;2023-04-28T06:16:49;38.95;;;23.48;;
23596;SDS011;40226;50.874;4.394;2023-04-28T06:19:15;34.92;;;21.60;;
23596;SDS011;40226;50.874;4.394;2023-04-28T06:21:44;31.60;;;19.65;;
23596;SDS011;40226;50.874;4.394;2023-04-28T06:24:11;30.25;;;20.73;;
23596;SDS011;40226;50.874;4.394;2023-04-28T06:26:36;31.60;;;20.48;;
23596;SDS011;40226;50.874;4.394;2023-04-28T06:29:05;28.88;;;19.95;;
23596;SDS011;40226;50.874;4.394;2023-04-28T06:31:45;26.25;;;17.92;;
23596;SDS011;40226;50.874;4.394;2023-04-28T06:34:12;25.70;;;17.05;;
23596;SDS011;40226;50.874;4.394;2023-04-28T06:39:48;18.92;;;13.40;;
23596;SDS011;40226;50.874;4.394;2023-04-28T06:42:14;19.50;;;13.18;;
23596;SDS011;40226;50.874;4.394;2023-04-28T06:48:05;19.00;;;13.23;;
23596;SDS011;40226;50.874;4.394;2023-04-28T06:50:36;17.80;;;12.95;;
23596;SDS011;40226;50.874;4.394;2023-04-28T06:53:02;16.80;;;12.50;;
23596;SDS011;40226;50.874;4.394;2023-04-28T06:55:27;17.83;;;12.70;;
23596;SDS011;40226;50.874;4.394;2023-04-28T06:57:53;13.82;;;11.10;;
23596;SDS011;40226;50.874;4.394;2023-04-28T07:00:19;14.55;;;11.70;;
23596;SDS011;40226;50.874;4.394;2023-04-28T07:02:45;14.25;;;10.48;;
23596;SDS011;40226;50.874;4.394;2023-04-28T07:05:10;14.65;;;10.57;;
23596;SDS011;40226;50.874;4.394;2023-04-28T07:07:43;13.18;;;10.32;;
23596;SDS011;40226;50.874;4.394;2023-04-28T07:10:11;12.30;;;9.27;;
23596;SDS011;40226;50.874;4.394;2023-04-28T07:12:39;13.23;;;9.18;;
23596;SDS011;40226;50.874;4.394;2023-04-28T07:15:05;10.38;;;8.15;;
23596;SDS011;40226;50.874;4.394;2023-04-28T07:17:31;11.38;;;9.00;;
23596;SDS011;40226;50.874;4.394;2023-04-28T07:19:57;11.43;;;8.48;;
23596;SDS011;40226;50.874;4.394;2023-04-28T07:22:23;9.93;;;8.48;;
23596;SDS011;40226;50.874;4.394;2023-04-28T07:24:48;10.55;;;8.05;;
23596;SDS011;40226;50.874;4.394;2023-04-28T07:27:14;8.65;;;7.07;;
23596;SDS011;40226;50.874;4.394;2023-04-28T07:29:40;10.13;;;7.53;;
23596;SDS011;40226;50.874;4.394;2023-04-28T07:32:06;10.80;;;7.55;;
23596;SDS011;40226;50.874;4.394;2023-04-28T07:34:35;7.97;;;6.85;;
23596;SDS011;40226;50.874;4.394;2023-04-28T07:37:00;8.48;;;6.85;;
23596;SDS011;40226;50.874;4.394;2023-04-28T07:39:27;7.00;;;6.10;;
23596;SDS011;40226;50.874;4.394;2023-04-28T07:41:55;8.30;;;6.13;;
23596;SDS011;40226;50.874;4.394;2023-04-28T07:44:22;8.88;;;5.97;;
23596;SDS011;40226;50.874;4.394;2023-04-28T07:46:47;6.32;;;5.00;;
23596;SDS011;40226;50.874;4.394;2023-04-28T07:49:13;5.82;;;5.15;;
23596;SDS011;40226;50.874;4.394;2023-04-28T07:51:39;6.15;;;5.30;;
23596;SDS011;40226;50.874;4.394;2023-04-28T07:54:05;7.25;;;5.72;;
23596;SDS011;40226;50.874;4.394;2023-04-28T07:56:30;8.70;;;5.88;;
23596;SDS011;40226;50.874;4.394;2023-04-28T07:58:56;5.60;;;4.47;;
23596;SDS011;40226;50.874;4.394;2023-04-28T08:01:22;3.97;;;3.58;;
23596;SDS011;40226;50.874;4.394;2023-04-28T08:03:47;5.40;;;4.43;;
23596;SDS011;40226;50.874;4.394;2023-04-28T08:06:13;5.38;;;4.57;;
23596;SDS011;40226;50.874;4.394;2023-04-28T08:08:38;4.50;;;3.28;;
23596;SDS011;40226;50.874;4.394;2023-04-28T08:11:04;5.43;;;3.35;;
23596;SDS011;40226;50.874;4.394;2023-04-28T08:13:30;3.53;;;3.03;;
23596;SDS011;40226;50.874;4.394;2023-04-28T08:15:56;11.00;;;8.63;;
23596;SDS011;40226;50.874;4.394;2023-04-28T08:18:24;3.50;;;2.58;;
23596;SDS011;40226;50.874;4.394;2023-04-28T08:20:50;6.65;;;2.55;;
23596;SDS011;40226;50.874;4.394;2023-04-28T08:23:16;2.55;;;2.17;;
23596;SDS011;40226;50.874;4.394;2023-04-28T08:25:42;2.90;;;2.20;;
23596;SDS011;40226;50.874;4.394;2023-04-28T08:28:07;3.97;;;2.10;;
23596;SDS011;40226;50.874;4.394;2023-04-28T08:30:33;2.85;;;1.90;;
23596;SDS011;40226;50.874;4.394;2023-04-28T08:32:59;2.58;;;2.03;;
23596;SDS011;40226;50.874;4.394;2023-04-28T08:35:25;2.13;;;1.88;;
23596;SDS011;40226;50.874;4.394;2023-04-28T08:37:51;2.28;;;1.80;;
23596;SDS011;40226;50.874;4.394;2023-04-28T08:40:17;3.40;;;2.40;;
23596;SDS011;40226;50.874;4.394;2023-04-28T08:42:43;4.88;;;2.00;;
23596;SDS011;40226;50.874;4.394;2023-04-28T08:45:12;2.95;;;1.77;;
23596;SDS011;40226;50.874;4.394;2023-04-28T08:47:38;2.65;;;1.90;;
23596;SDS011;40226;50.874;4.394;2023-04-28T08:50:09;2.92;;;2.00;;
23596;SDS011;40226;50.874;4.394;2023-04-28T08:52:36;4.68;;;1.90;;
23596;SDS011;40226;50.874;4.394;2023-04-28T08:55:06;1.92;;;1.73;;
23596;SDS011;40226;50.874;4.394;2023-04-28T09:00:15;3.22;;;1.95;;
23596;SDS011;40226;50.874;4.394;2023-04-28T09:02:41;2.22;;;1.40;;
23596;SDS011;40226;50.874;4.394;2023-04-28T09:05:07;2.30;;;1.30;;
23596;SDS011;40226;50.874;4.394;2023-04-28T09:07:34;3.22;;;1.70;;
23596;SDS011;40226;50.874;4.394;2023-04-28T09:12:42;4.47;;;1.50;;
23596;SDS011;40226;50.874;4.394;2023-04-28T09:15:08;2.38;;;1.10;;
23596;SDS011;40226;50.874;4.394;2023-04-28T09:17:49;2.65;;;1.52;;
23596;SDS011;40226;50.874;4.394;2023-04-28T09:20:22;1.70;;;1.00;;
23596;SDS011;40226;50.874;4.394;2023-04-28T09:22:50;1.75;;;1.00;;
23596;SDS011;40226;50.874;4.394;2023-04-28T09:25:17;3.45;;;1.10;;
23596;SDS011;40226;50.874;4.394;2023-04-28T09:27:45;1.65;;;0.82;;
23596;SDS011;40226;50.874;4.394;2023-04-28T09:30:15;1.10;;;0.80;;
23596;SDS011;40226;50.874;4.394;2023-04-28T09:32:41;2.00;;;1.10;;
23596;SDS011;40226;50.874;4.394;2023-04-28T09:35:07;3.40;;;1.63;;
23596;SDS011;40226;50.874;4.394;2023-04-28T09:37:33;3.03;;;1.85;;
23596;SDS011;40226;50.874;4.394;2023-04-28T09:40:09;3.90;;;1.83;;
23596;SDS011;40226;50.874;4.394;2023-04-28T09:42:37;2.38;;;1.45;;
23596;SDS011;40226;50.874;4.394;2023-04-28T09:45:11;2.78;;;1.73;;
23596;SDS011;40226;50.874;4.394;2023-04-28T09:47:39;3.72;;;2.45;;
23596;SDS011;40226;50.874;4.394;2023-04-28T09:50:06;2.72;;;2.30;;
23596;SDS011;40226;50.874;4.394;2023-04-28T09:52:36;3.53;;;2.38;;
23596;SDS011;40226;50.874;4.394;2023-04-28T09:55:03;2.30;;;1.98;;
23596;SDS011;40226;50.874;4.394;2023-04-28T09:57:33;3.88;;;2.35;;
23596;SDS011;40226;50.874;4.394;2023-04-28T10:00:00;5.78;;;2.90;;
23596;SDS011;40226;50.874;4.394;2023-04-28T10:02:28;3.78;;;2.90;;
23596;SDS011;40226;50.874;4.394;2023-04-28T10:04:54;5.28;;;3.22;;
23596;SDS011;40226;50.874;4.394;2023-04-28T10:07:21;4.13;;;3.17;;
23596;SDS011;40226;50.874;4.394;2023-04-28T10:09:47;5.40;;;3.72;;
23596;SDS011;40226;50.874;4.394;2023-04-28T10:12:22;5.05;;;3.35;;
23596;SDS011;40226;50.874;4.394;2023-04-28T10:17:15;1.77;;;1.40;;
23596;SDS011;40226;50.874;4.394;2023-04-28T10:19:42;1.98;;;1.35;;
23596;SDS011;40226;50.874;4.394;2023-04-28T10:27:42;2.13;;;1.20;;
23596;SDS011;40226;50.874;4.394;2023-04-28T10:30:13;4.25;;;1.50;;
23596;SDS011;40226;50.874;4.394;2023-04-28T10:40:37;4.15;;;1.40;;
23596;SDS011;40226;50.874;4.394;2023-04-28T10:43:03;2.97;;;1.65;;
23596;SDS011;40226;50.874;4.394;2023-04-28T10:56:12;2.10;;;1.60;;
23596;SDS011;40226;50.874;4.394;2023-04-28T10:59:01;3.50;;;1.75;;
23596;SDS011;40226;50.874;4.394;2023-04-28T11:01:46;2.97;;;2.08;;
23596;SDS011;40226;50.874;4.394;2023-04-28T11:04:12;6.25;;;2.90;;
23596;SDS011;40226;50.874;4.394;2023-04-28T11:06:40;4.78;;;3.13;;
23596;SDS011;40226;50.874;4.394;2023-04-28T11:17:00;2.97;;;2.38;;
23596;SDS011;40226;50.874;4.394;2023-04-28T11:19:31;3.88;;;2.10;;
23596;SDS011;40226;50.874;4.394;2023-04-28T11:21:58;3.13;;;2.00;;
23596;SDS011;40226;50.874;4.394;2023-04-28T11:24:26;3.22;;;2.70;;
23596;SDS011;40226;50.874;4.394;2023-04-28T11:26:53;3.25;;;2.20;;
23596;SDS011;40226;50.874;4.394;2023-04-28T11:31:55;4.32;;;2.25;;
23596;SDS011;40226;50.874;4.394;2023-04-28T11:34:23;3.90;;;1.77;;
23596;SDS011;40226;50.874;4.394;2023-04-28T11:36:49;3.10;;;2.03;;
23596;SDS011;40226;50.874;4.394;2023-04-28T11:39:16;2.40;;;2.20;;
23596;SDS011;40226;50.874;4.394;2023-04-28T11:41:59;4.95;;;2.70;;
23596;SDS011;40226;50.874;4.394;2023-04-28T11:44:28;2.55;;;2.00;;
23596;SDS011;40226;50.874;4.394;2023-04-28T11:46:55;2.80;;;1.90;;
23596;SDS011;40226;50.874;4.394;2023-04-28T11:49:28;3.50;;;1.90;;
23596;SDS011;40226;50.874;4.394;2023-04-28T11:52:08;3.30;;;2.10;;
23596;SDS011;40226;50.874;4.394;2023-04-28T11:54:34;2.83;;;1.85;;
23596;SDS011;40226;50.874;4.394;2023-04-28T11:57:01;5.40;;;3.00;;
23596;SDS011;40226;50.874;4.394;2023-04-28T11:59:31;3.92;;;3.30;;
23596;SDS011;40226;50.874;4.394;2023-04-28T12:02:00;8.20;;;3.40;;
23596;SDS011;40226;50.874;4.394;2023-04-28T12:04:27;5.85;;;3.25;;
23596;SDS011;40226;50.874;4.394;2023-04-28T12:07:03;6.07;;;2.88;;
23596;SDS011;40226;50.874;4.394;2023-04-28T12:09:29;4.20;;;2.72;;
23596;SDS011;40226;50.874;4.394;2023-04-28T12:12:09;2.95;;;2.33;;
23596;SDS011;40226;50.874;4.394;2023-04-28T12:14:55;4.95;;;2.45;;
23596;SDS011;40226;50.874;4.394;2023-04-28T12:17:30;2.85;;;1.83;;
23596;SDS011;40226;50.874;4.394;2023-04-28T12:19:58;2.38;;;1.70;;
23596;SDS011;40226;50.874;4.394;2023-04-28T12:22:26;4.20;;;2.13;;
23596;SDS011;40226;50.874;4.394;2023-04-28T12:27:26;3.50;;;2.20;;
23596;SDS011;40226;50.874;4.394;2023-04-28T12:29:54;5.80;;;1.95;;
23596;SDS011;40226;50.874;4.394;2023-04-28T12:32:24;2.72;;;1.98;;
23596;SDS011;40226;50.874;4.394;2023-04-28T12:35:05;3.28;;;2.20;;
23596;SDS011;40226;50.874;4.394;2023-04-28T12:37:31;3.97;;;2.08;;
23596;SDS011;40226;50.874;4.394;2023-04-28T12:39:57;3.10;;;2.00;;
23596;SDS011;40226;50.874;4.394;2023-04-28T12:42:23;4.07;;;1.77;;
23596;SDS011;40226;50.874;4.394;2023-04-28T12:44:49;4.07;;;2.08;;
23596;SDS011;40226;50.874;4.394;2023-04-28T12:47:15;3.22;;;1.80;;
23596;SDS011;40226;50.874;4.394;2023-04-28T12:49:43;3.88;;;2.00;;
23596;SDS011;40226;50.874;4.394;2023-04-28T12:52:09;3.22;;;1.98;;
23596;SDS011;40226;50.874;4.394;2023-04-28T12:54:35;2.95;;;2.00;;
23596;SDS011;40226;50.874;4.394;2023-04-28T12:57:01;3.50;;;2.08;;
23596;SDS011;40226;50.874;4.394;2023-04-28T12:59:27;2.75;;;1.95;;
23596;SDS011;40226;50.874;4.394;2023-04-28T13:01:54;3.35;;;2.30;;
23596;SDS011;40226;50.874;4.394;2023-04-28T13:04:20;4.40;;;2.50;;
23596;SDS011;40226;50.874;4.394;2023-04-28T13:06:46;3.42;;;2.40;;
23596;SDS011;40226;50.874;4.394;2023-04-28T13:09:12;3.65;;;2.13;;
23596;SDS011;40226;50.874;4.394;2023-04-28T13:11:39;5.50;;;2.60;;
23596;SDS011;40226;50.874;4.394;2023-04-28T13:14:05;4.57;;;2.42;;
23596;SDS011;40226;50.874;4.394;2023-04-28T13:16:32;2.88;;;2.38;;
23596;SDS011;40226;50.874;4.394;2023-04-28T13:18:58;3.65;;;2.35;;
23596;SDS011;40226;50.874;4.394;2023-04-28T13:21:25;3.80;;;2.30;;
23596;SDS011;40226;50.874;4.394;2023-04-28T13:23:53;7.57;;;2.90;;
23596;SDS011;40226;50.874;4.394;2023-04-28T13:26:20;5.97;;;2.25;;
23596;SDS011;40226;50.874;4.394;2023-04-28T13:28:48;3.03;;;2.60;;
23596;SDS011;40226;50.874;4.394;2023-04-28T13:31:15;4.25;;;2.60;;
23596;SDS011;40226;50.874;4.394;2023-04-28T13:33:40;3.33;;;2.47;;
23596;SDS011;40226;50.874;4.394;2023-04-28T13:36:06;5.28;;;2.58;;
23596;SDS011;40226;50.874;4.394;2023-04-28T13:38:33;3.97;;;2.35;;
23596;SDS011;40226;50.874;4.394;2023-04-28T13:40:59;5.43;;;2.58;;
23596;SDS011;40226;50.874;4.394;2023-04-28T13:43:25;3.13;;;2.38;;
23596;SDS011;40226;50.874;4.394;2023-04-28T13:45:51;3.03;;;2.63;;
23596;SDS011;40226;50.874;4.394;2023-04-28T13:48:17;5.07;;;3.20;;
23596;SDS011;40226;50.874;4.394;2023-04-28T13:50:43;3.85;;;2.65;;
23596;SDS011;40226;50.874;4.394;2023-04-28T13:53:09;3.80;;;2.60;;
23596;SDS011;40226;50.874;4.394;2023-04-28T13:55:35;4.60;;;2.70;;
23596;SDS011;40226;50.874;4.394;2023-04-28T13:58:00;5.10;;;2.42;;
23596;SDS011;40226;50.874;4.394;2023-04-28T14:00:29;5.90;;;2.60;;
23596;SDS011;40226;50.874;4.394;2023-04-28T14:02:56;3.83;;;2.55;;
23596;SDS011;40226;50.874;4.394;2023-04-28T14:05:22;3.85;;;2.38;;
23596;SDS011;40226;50.874;4.394;2023-04-28T14:07:48;4.18;;;2.45;;
23596;SDS011;40226;50.874;4.394;2023-04-28T14:10:14;4.13;;;2.53;;
23596;SDS011;40226;50.874;4.394;2023-04-28T14:12:40;4.22;;;2.45;;
23596;SDS011;40226;50.874;4.394;2023-04-28T14:15:06;4.95;;;2.70;;
23596;SDS011;40226;50.874;4.394;2023-04-28T14:17:32;3.13;;;2.30;;
23596;SDS011;40226;50.874;4.394;2023-04-28T14:19:59;8.85;;;2.63;;
23596;SDS011;40226;50.874;4.394;2023-04-28T14:22:28;5.50;;;2.58;;
23596;SDS011;40226;50.874;4.394;2023-04-28T14:24:54;5.75;;;2.90;;
23596;SDS011;40226;50.874;4.394;2023-04-28T14:27:20;3.85;;;2.60;;
23596;SDS011;40226;50.874;4.394;2023-04-28T14:29:46;3.05;;;2.55;;
23596;SDS011;40226;50.874;4.394;2023-04-28T14:32:15;5.00;;;2.40;;
23596;SDS011;40226;50.874;4.394;2023-04-28T14:34:43;3.63;;;2.25;;
23596;SDS011;40226;50.874;4.394;2023-04-28T14:37:08;4.03;;;2.20;;
23596;SDS011;40226;50.874;4.394;2023-04-28T14:39:36;4.35;;;2.45;;
23596;SDS011;40226;50.874;4.394;2023-04-28T14:42:03;3.72;;;2.65;;
23596;SDS011;40226;50.874;4.394;2023-04-28T14:44:29;3.20;;;2.25;;
23596;SDS011;40226;50.874;4.394;2023-04-28T14:46:55;5.55;;;2.00;;
23596;SDS011;40226;50.874;4.394;2023-04-28T14:49:20;3.65;;;2.30;;
23596;SDS011;40226;50.874;4.394;2023-04-28T14:51:47;4.25;;;2.17;;
23596;SDS011;40226;50.874;4.394;2023-04-28T14:54:13;2.65;;;1.70;;
23596;SDS011;40226;50.874;4.394;2023-04-28T14:56:39;2.47;;;1.90;;
23596;SDS011;40226;50.874;4.394;2023-04-28T14:59:04;2.63;;;1.63;;
23596;SDS011;40226;50.874;4.394;2023-04-28T15:01:30;4.55;;;1.60;;
23596;SDS011;40226;50.874;4.394;2023-04-28T15:03:56;5.35;;;1.90;;
23596;SDS011;40226;50.874;4.394;2023-04-28T15:06:22;3.80;;;1.85;;
23596;SDS011;40226;50.874;4.394;2023-04-28T15:08:48;1.98;;;1.50;;
23596;SDS011;40226;50.874;4.394;2023-04-28T15:11:13;3.67;;;1.50;;
23596;SDS011;40226;50.874;4.394;2023-04-28T15:13:39;3.03;;;1.63;;
23596;SDS011;40226;50.874;4.394;2023-04-28T15:16:05;2.67;;;1.42;;
23596;SDS011;40226;50.874;4.394;2023-04-28T15:18:31;2.90;;;1.60;;
23596;SDS011;40226;50.874;4.394;2023-04-28T15:20:57;3.42;;;1.65;;
23596;SDS011;40226;50.874;4.394;2023-04-28T15:23:23;2.65;;;1.70;;
23596;SDS011;40226;50.874;4.394;2023-04-28T15:25:49;2.15;;;1.10;;
23596;SDS011;40226;50.874;4.394;2023-04-28T15:28:17;2.83;;;1.40;;
23596;SDS011;40226;50.874;4.394;2023-04-28T15:30:43;2.40;;;1.45;;